createdAt,value
2019-06-08T00:02:16.636Z,14.40
2019-06-08T00:04:44.657Z,14.40
2019-06-08T00:07:13.083Z,14.40
2019-06-08T00:09:41.074Z,14.40
2019-06-08T00:12:08.952Z,14.30
2019-06-08T00:14:36.873Z,14.30
2019-06-08T00:17:04.748Z,14.30
2019-06-08T00:19:32.714Z,14.20
2019-06-08T00:22:00.717Z,14.20
2019-06-08T00:24:28.680Z,14.10
2019-06-08T00:26:56.575Z,14.10
2019-06-08T00:29:24.664Z,14.10
2019-06-08T00:31:52.643Z,14.00
2019-06-08T00:34:20.711Z,14.10
2019-06-08T00:36:48.760Z,14.00
2019-06-08T00:39:16.796Z,14.00
2019-06-08T00:41:44.709Z,14.10
2019-06-08T00:44:12.698Z,14.00
2019-06-08T00:46:40.714Z,14.00
2019-06-08T00:49:08.748Z,14.00
2019-06-08T00:51:36.620Z,14.00
2019-06-08T00:54:04.484Z,13.90
2019-06-08T00:56:32.457Z,13.90
2019-06-08T00:59:00.450Z,14.00
2019-06-08T01:01:28.638Z,13.90
2019-06-08T01:03:56.621Z,14.00
2019-06-08T01:06:25.010Z,14.00
2019-06-08T01:08:52.956Z,14.00
2019-06-08T01:11:21.045Z,14.00
2019-06-08T01:13:51.774Z,14.00
2019-06-08T01:16:20.881Z,14.00
2019-06-08T01:18:49.061Z,14.00
2019-06-08T01:21:16.992Z,14.00
2019-06-08T01:23:44.890Z,14.00
2019-06-08T01:26:12.773Z,14.00
2019-06-08T01:28:40.657Z,14.00
2019-06-08T01:31:08.661Z,14.00
2019-06-08T01:33:36.598Z,14.00
2019-06-08T01:36:04.586Z,13.90
2019-06-08T01:38:32.515Z,13.80
2019-06-08T01:41:00.440Z,13.80
2019-06-08T01:43:29.594Z,13.80
2019-06-08T01:45:57.704Z,13.70
2019-06-08T01:48:26.299Z,13.70
2019-06-08T01:50:54.242Z,13.60
2019-06-08T01:53:22.782Z,13.60
2019-06-08T01:55:50.877Z,13.60
2019-06-08T01:58:18.760Z,13.60
2019-06-08T02:00:46.701Z,13.60
2019-06-08T02:03:14.662Z,13.60
2019-06-08T02:05:42.620Z,13.60
2019-06-08T02:08:10.590Z,13.60
2019-06-08T02:10:38.596Z,13.60
2019-06-08T02:13:08.833Z,13.70
2019-06-08T02:15:36.606Z,13.60
2019-06-08T02:18:04.586Z,13.70
2019-06-08T02:20:33.032Z,13.70
2019-06-08T02:23:01.080Z,13.70
2019-06-08T02:25:29.370Z,13.70
2019-06-08T02:27:57.447Z,13.80
2019-06-08T02:30:25.318Z,13.70
2019-06-08T02:32:53.317Z,13.70
2019-06-08T02:35:21.207Z,13.70
2019-06-08T02:37:49.225Z,13.70
2019-06-08T02:40:17.244Z,13.70
2019-06-08T02:42:45.299Z,13.70
2019-06-08T02:45:13.191Z,13.70
2019-06-08T02:47:43.062Z,13.60
2019-06-08T02:50:10.795Z,13.60
2019-06-08T02:52:40.580Z,13.60
2019-06-08T02:55:08.378Z,13.60
2019-06-08T02:57:37.601Z,13.60
2019-06-08T03:00:05.903Z,13.50
2019-06-08T03:02:34.499Z,13.50
2019-06-08T03:05:22.459Z,13.50
2019-06-08T03:07:50.430Z,13.50
2019-06-08T03:10:18.395Z,13.50
2019-06-08T03:12:46.307Z,13.50
2019-06-08T03:15:14.200Z,13.50
2019-06-08T03:17:42.214Z,13.50
2019-06-08T03:20:10.113Z,13.50
2019-06-08T03:22:39.514Z,13.40
2019-06-08T03:25:07.781Z,13.40
2019-06-08T03:27:37.284Z,13.40
2019-06-08T03:30:16.461Z,13.40
2019-06-08T03:32:42.092Z,13.30
2019-06-08T03:35:04.819Z,13.30
2019-06-08T03:37:33.287Z,13.30
2019-06-08T03:40:01.461Z,13.30
2019-06-08T03:42:29.421Z,13.30
2019-06-08T03:44:57.360Z,13.30
2019-06-08T03:47:25.402Z,13.20
2019-06-08T03:49:57.431Z,13.30
2019-06-08T03:52:23.162Z,13.30
2019-06-08T03:54:51.174Z,13.20
2019-06-08T03:57:19.063Z,13.20
2019-06-08T03:59:47.808Z,13.20
2019-06-08T04:02:16.002Z,13.20
2019-06-08T04:04:43.952Z,13.20
2019-06-08T04:07:13.758Z,13.20
2019-06-08T04:09:41.752Z,13.20
2019-06-08T04:12:09.708Z,13.20
2019-06-08T04:14:37.912Z,13.20
2019-06-08T04:17:05.957Z,13.20
2019-06-08T04:19:33.838Z,13.20
2019-06-08T04:22:01.825Z,13.20
2019-06-08T04:24:29.869Z,13.20
2019-06-08T04:26:57.859Z,13.20
2019-06-08T04:29:26.409Z,13.20
2019-06-08T04:31:54.411Z,13.20
2019-06-08T04:34:22.433Z,13.20
2019-06-08T04:36:50.486Z,13.20
2019-06-08T04:39:18.646Z,13.20
2019-06-08T04:41:47.179Z,13.20
2019-06-08T04:44:15.308Z,13.20
2019-06-08T04:46:45.049Z,13.20
2019-06-08T04:49:12.914Z,13.20
2019-06-08T04:51:41.200Z,13.20
2019-06-08T04:54:14.269Z,13.20
2019-06-08T04:56:40.925Z,13.20
2019-06-08T04:59:08.860Z,13.30
2019-06-08T05:01:36.835Z,13.30
2019-06-08T05:04:04.746Z,13.30
2019-06-08T05:06:32.786Z,13.30
2019-06-08T05:09:00.774Z,13.30
2019-06-08T05:11:28.653Z,13.40
2019-06-08T05:13:56.593Z,13.40
2019-06-08T05:16:24.454Z,13.40
2019-06-08T05:18:52.346Z,13.50
2019-06-08T05:21:20.232Z,13.60
2019-06-08T05:23:55.106Z,13.50
2019-06-08T05:26:17.723Z,13.50
2019-06-08T05:28:45.642Z,13.50
2019-06-08T05:31:13.583Z,13.60
2019-06-08T05:33:41.488Z,13.50
2019-06-08T05:36:09.340Z,13.60
2019-06-08T05:38:37.251Z,13.50
2019-06-08T05:41:05.200Z,13.60
2019-06-08T05:43:33.181Z,13.50
2019-06-08T05:46:01.154Z,13.50
2019-06-08T05:48:29.055Z,13.50
2019-06-08T05:51:03.941Z,13.50
2019-06-08T05:53:26.641Z,13.50
2019-06-08T05:55:54.541Z,13.50
2019-06-08T05:58:22.535Z,13.40
2019-06-08T06:00:50.758Z,13.40
2019-06-08T06:03:18.809Z,13.40
2019-06-08T06:05:46.793Z,13.40
2019-06-08T06:08:18.787Z,13.40
2019-06-08T06:10:44.836Z,13.40
2019-06-08T06:13:12.914Z,13.30
2019-06-08T06:15:41.001Z,13.30
2019-06-08T06:18:09.061Z,13.30
2019-06-08T06:20:36.993Z,13.40
2019-06-08T06:23:04.881Z,13.40
2019-06-08T06:25:32.774Z,13.40
2019-06-08T06:28:00.759Z,13.40
2019-06-08T06:30:28.724Z,13.40
2019-06-08T06:32:56.601Z,13.40
2019-06-08T06:35:24.456Z,13.40
2019-06-08T06:37:52.418Z,13.40
2019-06-08T06:40:20.432Z,13.40
2019-06-08T06:42:48.453Z,13.50
2019-06-08T06:45:16.386Z,13.50
2019-06-08T06:47:44.264Z,13.50
2019-06-08T06:50:12.279Z,13.60
2019-06-08T06:52:40.222Z,13.70
2019-06-08T06:55:08.194Z,13.70
2019-06-08T06:57:36.853Z,13.90
2019-06-08T07:00:04.950Z,14.00
2019-06-08T07:02:32.946Z,14.00
2019-06-08T07:05:00.999Z,14.00
2019-06-08T07:07:28.875Z,14.00
2019-06-08T07:09:56.773Z,14.00
2019-06-08T07:12:24.676Z,14.00
2019-06-08T07:14:53.274Z,13.90
2019-06-08T07:17:21.333Z,13.80
2019-06-08T07:19:50.405Z,13.80
2019-06-08T07:22:18.429Z,13.70
2019-06-08T07:24:46.802Z,13.70
2019-06-08T07:27:14.874Z,13.70
2019-06-08T07:29:42.742Z,13.70
2019-06-08T07:32:10.657Z,13.60
2019-06-08T07:34:41.145Z,13.60
2019-06-08T07:37:08.222Z,13.70
2019-06-08T07:39:36.181Z,13.80
2019-06-08T07:42:04.088Z,13.90
2019-06-08T07:44:32.062Z,13.90
2019-06-08T07:47:00.170Z,14.00
2019-06-08T07:49:28.213Z,14.00
2019-06-08T07:52:07.151Z,14.00
2019-06-08T07:54:25.869Z,14.00
2019-06-08T07:56:54.936Z,14.00
2019-06-08T07:59:23.095Z,13.90
2019-06-08T08:01:51.884Z,13.90
2019-06-08T08:04:19.953Z,13.90
2019-06-08T08:06:48.345Z,13.90
2019-06-08T08:09:16.418Z,13.90
2019-06-08T08:11:44.452Z,13.80
2019-06-08T08:14:12.485Z,13.90
2019-06-08T08:16:40.451Z,13.90
2019-06-08T08:19:08.330Z,13.90
2019-06-08T08:21:38.022Z,14.00
2019-06-08T08:24:07.294Z,14.10
2019-06-08T08:26:35.358Z,14.00
2019-06-08T08:29:03.648Z,14.00
2019-06-08T08:31:31.781Z,14.10
2019-06-08T08:34:05.354Z,14.20
2019-06-08T08:36:32.569Z,14.20
2019-06-08T08:39:01.016Z,14.30
2019-06-08T08:41:28.700Z,14.50
2019-06-08T08:43:58.962Z,14.50
2019-06-08T08:46:28.509Z,14.60
2019-06-08T08:49:04.677Z,14.60
2019-06-08T08:51:27.913Z,14.70
2019-06-08T08:54:01.169Z,14.70
2019-06-08T08:56:24.987Z,14.70
2019-06-08T08:58:52.880Z,14.70
2019-06-08T09:01:20.886Z,14.70
2019-06-08T09:03:51.850Z,14.70
2019-06-08T09:06:18.565Z,14.70
2019-06-08T09:08:48.403Z,14.70
2019-06-08T09:11:17.564Z,14.70
2019-06-08T09:13:45.756Z,14.80
2019-06-08T09:16:13.714Z,14.80
2019-06-08T09:18:41.612Z,14.80
2019-06-08T09:21:09.501Z,14.80
2019-06-08T09:23:37.899Z,14.90
2019-06-08T09:26:11.731Z,14.90
2019-06-08T09:28:35.675Z,15.00
2019-06-08T09:31:04.159Z,15.00
2019-06-08T09:33:32.265Z,15.00
2019-06-08T09:36:02.765Z,15.00
2019-06-08T09:38:29.868Z,15.00
2019-06-08T09:41:01.231Z,15.00
2019-06-08T09:43:28.932Z,15.10
2019-06-08T09:46:00.534Z,15.30
2019-06-08T09:48:28.874Z,15.50
2019-06-08T09:50:59.438Z,15.70
2019-06-08T09:53:36.407Z,16.00
2019-06-08T09:55:57.579Z,16.40
2019-06-08T09:58:25.370Z,16.50
2019-06-08T10:00:54.583Z,16.70
2019-06-08T10:03:23.000Z,16.70
2019-06-08T10:05:50.965Z,16.70
2019-06-08T10:08:20.798Z,16.60
2019-06-08T10:10:48.564Z,16.50
2019-06-08T10:13:18.958Z,16.50
2019-06-08T10:15:48.649Z,16.40
2019-06-08T10:18:17.637Z,16.40
2019-06-08T10:20:48.002Z,16.30
2019-06-08T10:23:29.855Z,16.40
2019-06-08T10:25:45.023Z,16.40
2019-06-08T10:28:15.931Z,16.40
2019-06-08T10:30:42.755Z,16.50
2019-06-08T10:33:10.737Z,16.50
2019-06-08T10:35:38.648Z,16.50
2019-06-08T10:38:11.277Z,16.50
2019-06-08T10:40:38.399Z,16.60
2019-06-08T10:43:09.382Z,16.60
2019-06-08T10:45:36.279Z,16.80
2019-06-08T10:48:04.864Z,17.10
2019-06-08T10:50:33.973Z,17.30
2019-06-08T10:53:04.085Z,17.50
2019-06-08T10:55:31.617Z,17.70
2019-06-08T10:58:00.154Z,17.80
2019-06-08T11:00:28.546Z,17.80
2019-06-08T11:02:58.984Z,17.90
2019-06-08T11:05:28.043Z,17.90
2019-06-08T11:07:58.828Z,17.90
2019-06-08T11:10:25.616Z,17.90
2019-06-08T11:12:53.671Z,17.90
2019-06-08T11:15:21.637Z,17.90
2019-06-08T11:17:49.625Z,18.00
2019-06-08T11:20:17.491Z,18.10
2019-06-08T11:22:49.768Z,18.20
2019-06-08T11:25:16.695Z,18.20
2019-06-08T11:27:44.714Z,18.10
2019-06-08T11:30:23.600Z,18.00
2019-06-08T11:32:44.112Z,18.10
2019-06-08T11:35:12.709Z,18.10
2019-06-08T11:37:41.189Z,18.20
2019-06-08T11:40:12.226Z,18.40
2019-06-08T11:42:39.053Z,18.60
2019-06-08T11:45:09.455Z,18.80
2019-06-08T11:47:38.928Z,18.90
2019-06-08T11:50:07.256Z,18.80
2019-06-08T11:52:38.183Z,18.70
2019-06-08T11:55:07.470Z,18.80
2019-06-08T11:57:37.404Z,18.90
2019-06-08T12:00:11.910Z,19.10
2019-06-08T12:02:34.770Z,19.30
2019-06-08T12:05:03.745Z,19.30
2019-06-08T12:07:31.804Z,19.30
2019-06-08T12:09:59.874Z,19.40
2019-06-08T12:12:28.280Z,19.60
2019-06-08T12:14:58.306Z,19.90
2019-06-08T12:17:27.574Z,20.00
2019-06-08T12:19:57.718Z,20.30
2019-06-08T12:22:25.550Z,20.40
2019-06-08T12:24:53.551Z,20.20
2019-06-08T12:27:29.909Z,20.20
2019-06-08T12:29:51.076Z,20.30
2019-06-08T12:32:19.073Z,20.50
2019-06-08T12:34:46.975Z,20.50
2019-06-08T12:37:19.608Z,20.30
2019-06-08T12:39:44.686Z,20.10
2019-06-08T12:42:19.544Z,20.00
2019-06-08T12:44:43.760Z,20.00
2019-06-08T12:47:15.870Z,20.00
2019-06-08T12:49:41.902Z,20.00
2019-06-08T12:52:12.234Z,20.20
2019-06-08T12:54:39.616Z,20.20
2019-06-08T12:57:11.910Z,20.30
2019-06-08T12:59:38.499Z,20.30
2019-06-08T13:02:08.767Z,20.20
2019-06-08T13:04:38.369Z,20.30
2019-06-08T13:07:08.385Z,20.30
2019-06-08T13:09:38.197Z,20.40
2019-06-08T13:12:08.021Z,20.70
2019-06-08T13:14:35.465Z,21.00
2019-06-08T13:17:03.483Z,21.20
2019-06-08T13:19:31.515Z,21.30
2019-06-08T13:21:59.606Z,21.30
2019-06-08T13:24:28.548Z,21.20
2019-06-08T13:26:57.903Z,21.00
2019-06-08T13:29:28.074Z,20.70
2019-06-08T13:31:55.793Z,20.60
2019-06-08T13:34:24.500Z,20.60
2019-06-08T13:36:52.681Z,20.60
2019-06-08T13:39:22.781Z,20.80
2019-06-08T13:41:52.142Z,21.00
2019-06-08T13:44:20.372Z,21.20
2019-06-08T13:46:48.300Z,21.30
2019-06-08T13:49:21.735Z,21.40
2019-06-08T13:51:47.947Z,21.30
2019-06-08T13:54:16.809Z,21.20
2019-06-08T13:56:45.436Z,20.90
2019-06-08T13:59:14.262Z,21.10
2019-06-08T14:01:43.006Z,21.10
2019-06-08T14:04:11.024Z,21.00
2019-06-08T14:06:39.096Z,21.00
2019-06-08T14:09:08.273Z,21.20
2019-06-08T14:11:36.469Z,21.40
2019-06-08T14:14:04.461Z,21.50
2019-06-08T14:16:32.471Z,21.60
2019-06-08T14:19:00.546Z,21.60
2019-06-08T14:21:37.380Z,21.70
2019-06-08T14:23:58.746Z,21.50
2019-06-08T14:26:26.952Z,21.50
2019-06-08T14:28:54.872Z,21.60
2019-06-08T14:31:23.971Z,21.60
2019-06-08T14:33:52.553Z,21.60
2019-06-08T14:36:22.684Z,21.50
2019-06-08T14:38:50.345Z,21.30
2019-06-08T14:41:19.796Z,21.20
2019-06-08T14:43:50.722Z,21.20
2019-06-08T14:46:18.484Z,21.20
2019-06-08T14:48:47.485Z,21.30
2019-06-08T14:51:15.488Z,21.60
2019-06-08T14:53:43.700Z,21.70
2019-06-08T14:56:11.589Z,21.80
2019-06-08T14:58:39.629Z,21.90
2019-06-08T15:01:08.041Z,21.90
2019-06-08T15:03:37.895Z,21.90
2019-06-08T15:06:08.141Z,21.90
2019-06-08T15:08:35.636Z,21.90
2019-06-08T15:11:03.714Z,22.00
2019-06-08T15:13:31.776Z,22.00
2019-06-08T15:16:00.711Z,21.90
2019-06-08T15:18:30.476Z,21.80
2019-06-08T15:20:58.807Z,21.80
2019-06-08T15:23:30.900Z,21.70
2019-06-08T15:25:58.255Z,21.80
2019-06-08T15:28:29.287Z,21.70
2019-06-08T15:30:59.850Z,21.80
2019-06-08T15:33:26.949Z,21.90
2019-06-08T15:35:57.483Z,21.90
2019-06-08T15:38:25.346Z,21.90
2019-06-08T15:40:53.350Z,21.80
2019-06-08T15:43:21.779Z,21.70
2019-06-08T15:45:51.355Z,21.60
2019-06-08T15:48:20.452Z,21.70
2019-06-08T15:50:49.409Z,21.60
2019-06-08T15:53:18.385Z,21.50
2019-06-08T15:55:51.266Z,21.40
2019-06-08T15:58:18.191Z,21.40
2019-06-08T16:00:45.952Z,21.50
2019-06-08T16:03:13.850Z,21.60
2019-06-08T16:05:41.738Z,21.70
2019-06-08T16:08:09.720Z,21.80
2019-06-08T16:10:37.786Z,21.80
2019-06-08T16:13:05.750Z,21.70
2019-06-08T16:15:35.234Z,21.50
2019-06-08T16:18:03.358Z,21.20
2019-06-08T16:20:31.625Z,21.20
2019-06-08T16:22:59.633Z,21.20
2019-06-08T16:25:46.830Z,21.00
2019-06-08T16:28:14.803Z,21.00
2019-06-08T16:30:42.775Z,21.00
2019-06-08T16:33:10.760Z,21.00
2019-06-08T16:35:39.961Z,21.00
2019-06-08T16:38:08.059Z,20.90
2019-06-08T16:40:36.341Z,20.70
2019-06-08T16:43:04.515Z,20.60
2019-06-08T16:45:33.151Z,20.40
2019-06-08T16:48:01.213Z,20.30
2019-06-08T16:50:30.203Z,20.20
2019-06-08T16:52:58.221Z,20.30
2019-06-08T16:55:26.124Z,20.30
2019-06-08T16:57:54.129Z,20.50
2019-06-08T17:00:31.256Z,20.60
2019-06-08T17:02:51.819Z,20.70
2019-06-08T17:05:19.756Z,20.80
2019-06-08T17:07:47.759Z,20.80
2019-06-08T17:10:15.829Z,20.90
2019-06-08T17:12:43.905Z,20.90
2019-06-08T17:15:11.893Z,20.80
2019-06-08T17:17:40.522Z,20.70
2019-06-08T17:20:08.630Z,20.60
2019-06-08T17:22:36.903Z,20.50
2019-06-08T17:25:08.118Z,20.50
2019-06-08T17:27:34.902Z,20.50
2019-06-08T17:30:08.281Z,20.50
2019-06-08T17:32:33.947Z,20.40
2019-06-08T17:35:02.249Z,20.40
2019-06-08T17:37:31.563Z,20.30
2019-06-08T17:39:59.679Z,20.20
2019-06-08T17:42:29.778Z,20.00
2019-06-08T17:44:57.743Z,19.90
2019-06-08T17:47:25.670Z,19.70
2019-06-08T17:49:53.940Z,19.50
2019-06-08T17:52:21.863Z,19.40
2019-06-08T17:54:49.813Z,19.20
2019-06-08T17:57:17.724Z,19.10
2019-06-08T17:59:45.674Z,19.00
2019-06-08T18:02:18.267Z,18.90
2019-06-08T18:04:44.380Z,18.80
2019-06-08T18:07:12.531Z,18.60
2019-06-08T18:09:41.899Z,18.50
2019-06-08T18:12:10.363Z,18.30
2019-06-08T18:14:40.237Z,18.20
2019-06-08T18:17:08.086Z,18.10
2019-06-08T18:19:39.792Z,18.00
2019-06-08T18:22:14.752Z,17.90
2019-06-08T18:24:37.881Z,17.90
2019-06-08T18:27:07.647Z,17.80
2019-06-08T18:29:34.864Z,17.80
2019-06-08T18:32:02.740Z,17.70
2019-06-08T18:34:30.738Z,17.70
2019-06-08T18:36:58.821Z,17.70
2019-06-08T18:39:27.248Z,17.70
2019-06-08T18:41:58.200Z,17.70
2019-06-08T18:44:24.989Z,17.60
2019-06-08T18:46:52.995Z,17.40
2019-06-08T18:49:20.944Z,17.30
2019-06-08T18:51:49.181Z,17.20
2019-06-08T18:54:18.802Z,17.10
2019-06-08T18:56:48.818Z,17.00
2019-06-08T18:59:18.302Z,16.80
2019-06-08T19:01:49.483Z,16.70
2019-06-08T19:04:15.967Z,16.70
2019-06-08T19:06:45.085Z,16.60
2019-06-08T19:09:13.155Z,16.50
2019-06-08T19:11:42.213Z,16.40
2019-06-08T19:14:11.517Z,16.30
2019-06-08T19:16:43.599Z,16.20
2019-06-08T19:19:09.180Z,16.10
2019-06-08T19:21:38.891Z,16.10
2019-06-08T19:24:09.581Z,16.00
2019-06-08T19:26:39.362Z,15.90
2019-06-08T19:29:07.708Z,15.80
2019-06-08T19:31:38.612Z,15.80
2019-06-08T19:34:07.506Z,15.60
2019-06-08T19:36:34.876Z,15.60
2019-06-08T19:39:02.867Z,15.50
2019-06-08T19:41:30.765Z,15.40
2019-06-08T19:43:58.724Z,15.40
2019-06-08T19:46:27.147Z,15.20
2019-06-08T19:48:56.425Z,15.20
2019-06-08T19:51:24.891Z,15.10
2019-06-08T19:53:54.948Z,15.10
2019-06-08T19:56:22.477Z,15.00
2019-06-08T19:58:58.891Z,14.90
2019-06-08T20:01:20.107Z,14.90
2019-06-08T20:03:49.029Z,14.70
2019-06-08T20:06:17.542Z,14.70
2019-06-08T20:08:49.740Z,14.60
2019-06-08T20:11:17.291Z,14.50
2019-06-08T20:13:45.466Z,14.50
2019-06-08T20:16:13.441Z,14.40
2019-06-08T20:18:41.545Z,14.30
2019-06-08T20:21:10.276Z,14.20
2019-06-08T20:23:38.423Z,14.10
2019-06-08T20:26:08.377Z,14.00
2019-06-08T20:28:37.303Z,14.10
2019-06-08T20:31:07.508Z,14.00
2019-06-08T20:33:37.676Z,14.00
2019-06-08T20:36:04.787Z,14.00
2019-06-08T20:38:38.365Z,13.90
2019-06-08T20:41:02.401Z,13.80
2019-06-08T20:43:30.387Z,13.80
2019-06-08T20:45:58.352Z,13.80
2019-06-08T20:48:27.568Z,13.70
2019-06-08T20:50:57.202Z,13.70
2019-06-08T20:53:25.279Z,13.60
2019-06-08T20:55:53.890Z,13.50
2019-06-08T20:58:22.135Z,13.40
2019-06-08T21:00:51.285Z,13.30
2019-06-08T21:03:19.673Z,13.20
2019-06-08T21:05:48.531Z,13.20
2019-06-08T21:08:17.538Z,13.10
2019-06-08T21:10:47.628Z,13.10
2019-06-08T21:13:17.807Z,13.00
2019-06-08T21:15:46.582Z,13.00
2019-06-08T21:18:14.725Z,12.90
2019-06-08T21:20:42.652Z,12.90
2019-06-08T21:23:10.686Z,12.80
2019-06-08T21:25:38.832Z,12.80
2019-06-08T21:28:07.799Z,12.70
2019-06-08T21:30:37.721Z,12.60
2019-06-08T21:33:07.703Z,12.50
2019-06-08T21:35:35.251Z,12.50
2019-06-08T21:38:03.320Z,12.40
2019-06-08T21:40:31.201Z,12.40
2019-06-08T21:43:01.128Z,12.30
2019-06-08T21:45:28.786Z,12.30
2019-06-08T21:47:59.934Z,12.30
2019-06-08T21:50:28.233Z,12.30
2019-06-08T21:52:59.063Z,12.20
2019-06-08T21:55:27.331Z,12.10
2019-06-08T21:57:59.387Z,12.10
2019-06-08T22:00:38.700Z,12.00
2019-06-08T22:02:56.473Z,12.00
2019-06-08T22:05:24.550Z,11.90
2019-06-08T22:07:52.442Z,11.80
2019-06-08T22:10:20.539Z,11.80
2019-06-08T22:12:48.680Z,11.80
2019-06-08T22:15:18.268Z,11.80
2019-06-08T22:17:47.599Z,11.80
2019-06-08T22:20:18.465Z,11.80
2019-06-08T22:22:47.284Z,11.70
2019-06-08T22:25:17.340Z,11.70
2019-06-08T22:27:44.708Z,11.60
2019-06-08T22:30:22.877Z,11.50
2019-06-08T22:32:42.476Z,11.50
2019-06-08T22:35:10.366Z,11.50
2019-06-08T22:37:38.334Z,11.30
2019-06-08T22:40:08.217Z,11.20
2019-06-08T22:42:37.427Z,11.20
2019-06-08T22:45:08.073Z,11.20
2019-06-08T22:47:35.353Z,11.20
2019-06-08T22:50:03.791Z,11.20
2019-06-08T22:52:31.886Z,11.20
2019-06-08T22:55:04.871Z,11.20
2019-06-08T22:57:29.547Z,11.10
2019-06-08T23:00:00.086Z,11.10
2019-06-08T23:02:27.851Z,11.00
2019-06-08T23:04:56.273Z,11.00
2019-06-08T23:07:29.826Z,10.90
2019-06-08T23:09:55.027Z,10.90
2019-06-08T23:12:23.446Z,10.80
2019-06-08T23:14:51.327Z,10.80
2019-06-08T23:17:19.325Z,10.80
2019-06-08T23:19:48.184Z,10.70
2019-06-08T23:22:17.712Z,10.60
2019-06-08T23:24:47.707Z,10.60
2019-06-08T23:27:17.474Z,10.60
2019-06-08T23:29:47.423Z,10.50
2019-06-08T23:32:14.757Z,10.50
2019-06-08T23:34:44.452Z,10.40
2019-06-08T23:37:13.078Z,10.40
2019-06-08T23:39:41.090Z,10.30
2019-06-08T23:42:09.109Z,10.30
2019-06-08T23:44:37.729Z,10.20
2019-06-08T23:47:06.040Z,10.20
2019-06-08T23:49:34.731Z,10.20
2019-06-08T23:52:03.875Z,10.10
2019-06-08T23:54:32.308Z,10.10
2019-06-08T23:57:01.155Z,10.10
2019-06-08T23:59:29.211Z,10.00
